sensor_id;sensor_type;location;lat;lon;timestamp;temperature;humidity
15690;DHT22;7945;48.816;11.506;2024-02-14T00:02:04;4.60;99.90
15690;DHT22;7945;48.816;11.506;2024-02-14T00:04:32;4.60;99.90
15690;DHT22;7945;48.816;11.506;2024-02-14T00:06:59;4.50;99.90
15690;DHT22;7945;48.816;11.506;2024-02-14T00:09:26;4.50;99.90
15690;DHT22;7945;48.816;11.506;2024-02-14T00:11:53;4.50;99.90
15690;DHT22;7945;48.816;11.506;2024-02-14T00:14:19;4.50;99.90
15690;DHT22;7945;48.816;11.506;2024-02-14T00:16:46;4.50;99.90
15690;DHT22;7945;48.816;11.506;2024-02-14T00:19:13;4.50;99.90
15690;DHT22;7945;48.816;11.506;2024-02-14T00:21:41;4.50;99.90
15690;DHT22;7945;48.816;11.506;2024-02-14T00:24:08;4.50;99.90
15690;DHT22;7945;48.816;11.506;2024-02-14T00:26:35;4.50;99.90
15690;DHT22;7945;48.816;11.506;2024-02-14T00:29:03;4.50;99.90
15690;DHT22;7945;48.816;11.506;2024-02-14T00:31:29;4.40;99.90
15690;DHT22;7945;48.816;11.506;2024-02-14T00:33:56;4.40;99.90
15690;DHT22;7945;48.816;11.506;2024-02-14T00:36:23;4.40;99.90
15690;DHT22;7945;48.816;11.506;2024-02-14T00:38:51;4.40;99.90
15690;DHT22;7945;48.816;11.506;2024-02-14T00:41:18;4.40;99.90
15690;DHT22;7945;48.816;11.506;2024-02-14T00:43:45;4.40;99.90
15690;DHT22;7945;48.816;11.506;2024-02-14T00:46:15;4.40;99.90
15690;DHT22;7945;48.816;11.506;2024-02-14T00:48:42;4.30;99.90
15690;DHT22;7945;48.816;11.506;2024-02-14T00:51:10;4.30;99.90
15690;DHT22;7945;48.816;11.506;2024-02-14T00:53:36;4.30;99.90
15690;DHT22;7945;48.816;11.506;2024-02-14T00:56:05;4.30;99.90
15690;DHT22;7945;48.816;11.506;2024-02-14T00:58:32;4.30;99.90
15690;DHT22;7945;48.816;11.506;2024-02-14T01:00:59;4.50;99.90
15690;DHT22;7945;48.816;11.506;2024-02-14T01:03:25;4.40;99.90
15690;DHT22;7945;48.816;11.506;2024-02-14T01:05:52;4.40;99.90
15690;DHT22;7945;48.816;11.506;2024-02-14T01:08:19;5.40;99.90
15690;DHT22;7945;48.816;11.506;2024-02-14T01:10:46;4.40;99.90
15690;DHT22;7945;48.816;11.506;2024-02-14T01:13:18;4.50;99.90
15690;DHT22;7945;48.816;11.506;2024-02-14T01:15:45;4.50;99.90
15690;DHT22;7945;48.816;11.506;2024-02-14T01:18:11;4.50;99.90
15690;DHT22;7945;48.816;11.506;2024-02-14T01:20:38;4.50;99.90
15690;DHT22;7945;48.816;11.506;2024-02-14T01:23:05;4.50;99.90
15690;DHT22;7945;48.816;11.506;2024-02-14T01:25:32;4.50;99.90
15690;DHT22;7945;48.816;11.506;2024-02-14T01:27:59;4.50;99.90
15690;DHT22;7945;48.816;11.506;2024-02-14T01:30:27;4.60;99.90
15690;DHT22;7945;48.816;11.506;2024-02-14T01:32:54;4.60;99.90
15690;DHT22;7945;48.816;11.506;2024-02-14T01:35:21;4.70;99.90
15690;DHT22;7945;48.816;11.506;2024-02-14T01:37:48;4.70;99.90
15690;DHT22;7945;48.816;11.506;2024-02-14T01:40:15;4.70;99.90
15690;DHT22;7945;48.816;11.506;2024-02-14T01:42:41;4.70;99.90
15690;DHT22;7945;48.816;11.506;2024-02-14T01:45:09;4.70;99.90
15690;DHT22;7945;48.816;11.506;2024-02-14T01:47:37;4.70;99.90
15690;DHT22;7945;48.816;11.506;2024-02-14T01:50:05;4.70;99.90
15690;DHT22;7945;48.816;11.506;2024-02-14T01:52:34;4.70;99.90
15690;DHT22;7945;48.816;11.506;2024-02-14T01:55:02;4.70;99.90
15690;DHT22;7945;48.816;11.506;2024-02-14T01:57:31;4.60;99.90
15690;DHT22;7945;48.816;11.506;2024-02-14T01:59:58;4.60;99.90
15690;DHT22;7945;48.816;11.506;2024-02-14T02:02:26;4.60;99.90
15690;DHT22;7945;48.816;11.506;2024-02-14T02:04:54;4.60;99.90
15690;DHT22;7945;48.816;11.506;2024-02-14T02:20:50;4.50;99.90
15690;DHT22;7945;48.816;11.506;2024-02-14T02:23:18;4.50;99.90
15690;DHT22;7945;48.816;11.506;2024-02-14T02:25:45;4.50;99.90
15690;DHT22;7945;48.816;11.506;2024-02-14T02:28:13;4.50;99.90
15690;DHT22;7945;48.816;11.506;2024-02-14T02:30:40;4.50;99.90
15690;DHT22;7945;48.816;11.506;2024-02-14T02:33:06;4.50;99.90
15690;DHT22;7945;48.816;11.506;2024-02-14T02:35:34;4.50;99.90
15690;DHT22;7945;48.816;11.506;2024-02-14T02:38:00;4.50;99.90
15690;DHT22;7945;48.816;11.506;2024-02-14T02:40:29;4.50;99.90
15690;DHT22;7945;48.816;11.506;2024-02-14T02:42:56;4.50;99.90
15690;DHT22;7945;48.816;11.506;2024-02-14T02:45:24;4.50;99.90
15690;DHT22;7945;48.816;11.506;2024-02-14T02:47:51;4.50;99.90
15690;DHT22;7945;48.816;11.506;2024-02-14T02:50:18;4.50;99.90
15690;DHT22;7945;48.816;11.506;2024-02-14T02:52:45;4.50;99.90
15690;DHT22;7945;48.816;11.506;2024-02-14T02:55:11;4.40;99.90
15690;DHT22;7945;48.816;11.506;2024-02-14T02:57:40;4.40;99.90
15690;DHT22;7945;48.816;11.506;2024-02-14T03:00:08;4.30;99.90
15690;DHT22;7945;48.816;11.506;2024-02-14T03:02:35;4.30;99.90
15690;DHT22;7945;48.816;11.506;2024-02-14T03:05:04;4.30;99.90
15690;DHT22;7945;48.816;11.506;2024-02-14T03:07:32;4.30;99.90
15690;DHT22;7945;48.816;11.506;2024-02-14T03:09:59;4.30;99.90
15690;DHT22;7945;48.816;11.506;2024-02-14T03:12:25;4.30;99.90
15690;DHT22;7945;48.816;11.506;2024-02-14T03:14:57;4.30;99.90
15690;DHT22;7945;48.816;11.506;2024-02-14T03:17:24;4.30;99.90
15690;DHT22;7945;48.816;11.506;2024-02-14T03:19:51;4.30;99.90
15690;DHT22;7945;48.816;11.506;2024-02-14T03:22:18;4.20;99.90
15690;DHT22;7945;48.816;11.506;2024-02-14T03:24:45;4.20;99.90
15690;DHT22;7945;48.816;11.506;2024-02-14T03:27:12;4.20;99.90
15690;DHT22;7945;48.816;11.506;2024-02-14T03:29:39;4.10;99.90
15690;DHT22;7945;48.816;11.506;2024-02-14T03:32:08;4.10;99.90
15690;DHT22;7945;48.816;11.506;2024-02-14T03:34:34;4.10;99.90
15690;DHT22;7945;48.816;11.506;2024-02-14T03:37:01;4.10;99.90
15690;DHT22;7945;48.816;11.506;2024-02-14T03:39:28;4.60;99.90
15690;DHT22;7945;48.816;11.506;2024-02-14T03:41:56;4.00;99.90
15690;DHT22;7945;48.816;11.506;2024-02-14T03:44:22;4.00;99.90
15690;DHT22;7945;48.816;11.506;2024-02-14T03:56:45;3.90;99.90
15690;DHT22;7945;48.816;11.506;2024-02-14T03:59:12;3.90;99.90
15690;DHT22;7945;48.816;11.506;2024-02-14T04:01:43;3.80;99.90
15690;DHT22;7945;48.816;11.506;2024-02-14T04:04:10;3.80;99.90
15690;DHT22;7945;48.816;11.506;2024-02-14T04:06:37;3.80;99.90
15690;DHT22;7945;48.816;11.506;2024-02-14T04:09:04;3.80;99.90
15690;DHT22;7945;48.816;11.506;2024-02-14T04:11:31;3.70;99.90
15690;DHT22;7945;48.816;11.506;2024-02-14T04:13:59;3.70;99.90
15690;DHT22;7945;48.816;11.506;2024-02-14T04:16:26;3.70;99.90
15690;DHT22;7945;48.816;11.506;2024-02-14T04:18:52;3.70;99.90
15690;DHT22;7945;48.816;11.506;2024-02-14T04:21:20;2.90;99.90
15690;DHT22;7945;48.816;11.506;2024-02-14T04:23:47;3.70;99.90
15690;DHT22;7945;48.816;11.506;2024-02-14T04:26:19;3.60;99.90
15690;DHT22;7945;48.816;11.506;2024-02-14T04:28:46;3.60;99.90
15690;DHT22;7945;48.816;11.506;2024-02-14T04:31:14;3.60;99.90
15690;DHT22;7945;48.816;11.506;2024-02-14T04:33:41;3.50;99.90
15690;DHT22;7945;48.816;11.506;2024-02-14T04:36:08;3.50;99.90
15690;DHT22;7945;48.816;11.506;2024-02-14T04:38:36;3.50;99.90
15690;DHT22;7945;48.816;11.506;2024-02-14T04:41:03;3.50;99.90
15690;DHT22;7945;48.816;11.506;2024-02-14T04:43:30;3.50;99.90
15690;DHT22;7945;48.816;11.506;2024-02-14T04:45:57;3.50;99.90
15690;DHT22;7945;48.816;11.506;2024-02-14T04:48:25;3.50;99.90
15690;DHT22;7945;48.816;11.506;2024-02-14T04:50:52;3.50;99.90
15690;DHT22;7945;48.816;11.506;2024-02-14T04:53:19;3.50;99.90
15690;DHT22;7945;48.816;11.506;2024-02-14T04:55:46;3.50;99.90
15690;DHT22;7945;48.816;11.506;2024-02-14T04:58:13;3.50;99.90
15690;DHT22;7945;48.816;11.506;2024-02-14T05:00:40;3.50;99.90
15690;DHT22;7945;48.816;11.506;2024-02-14T05:03:06;3.60;99.90
15690;DHT22;7945;48.816;11.506;2024-02-14T05:05:36;3.60;99.90
15690;DHT22;7945;48.816;11.506;2024-02-14T05:08:04;3.70;99.90
15690;DHT22;7945;48.816;11.506;2024-02-14T05:10:31;3.70;99.90
15690;DHT22;7945;48.816;11.506;2024-02-14T05:12:58;3.70;99.90
15690;DHT22;7945;48.816;11.506;2024-02-14T05:15:24;4.80;99.90
15690;DHT22;7945;48.816;11.506;2024-02-14T05:17:51;3.90;99.90
15690;DHT22;7945;48.816;11.506;2024-02-14T05:20:19;3.90;99.90
15690;DHT22;7945;48.816;11.506;2024-02-14T05:22:47;3.90;99.90
15690;DHT22;7945;48.816;11.506;2024-02-14T05:25:14;3.90;99.90
15690;DHT22;7945;48.816;11.506;2024-02-14T05:27:40;3.90;99.90
15690;DHT22;7945;48.816;11.506;2024-02-14T05:30:08;3.90;99.90
15690;DHT22;7945;48.816;11.506;2024-02-14T05:32:35;3.90;99.90
15690;DHT22;7945;48.816;11.506;2024-02-14T05:35:02;4.00;99.90
15690;DHT22;7945;48.816;11.506;2024-02-14T05:37:31;4.00;99.90
15690;DHT22;7945;48.816;11.506;2024-02-14T05:39:59;4.00;99.90
15690;DHT22;7945;48.816;11.506;2024-02-14T05:42:26;3.90;99.90
15690;DHT22;7945;48.816;11.506;2024-02-14T05:44:53;3.90;99.90
15690;DHT22;7945;48.816;11.506;2024-02-14T05:47:20;3.90;99.90
15690;DHT22;7945;48.816;11.506;2024-02-14T05:49:46;3.90;99.90
15690;DHT22;7945;48.816;11.506;2024-02-14T05:52:13;4.00;99.90
15690;DHT22;7945;48.816;11.506;2024-02-14T05:54:41;4.10;99.90
15690;DHT22;7945;48.816;11.506;2024-02-14T05:57:09;4.10;99.90
15690;DHT22;7945;48.816;11.506;2024-02-14T05:59:36;4.10;99.90
15690;DHT22;7945;48.816;11.506;2024-02-14T06:02:03;4.20;99.90
15690;DHT22;7945;48.816;11.506;2024-02-14T06:04:31;4.20;99.90
15690;DHT22;7945;48.816;11.506;2024-02-14T06:06:58;4.20;99.90
15690;DHT22;7945;48.816;11.506;2024-02-14T06:09:24;4.20;99.90
15690;DHT22;7945;48.816;11.506;2024-02-14T06:11:52;4.20;99.90
15690;DHT22;7945;48.816;11.506;2024-02-14T06:16:16;4.60;99.90
15690;DHT22;7945;48.816;11.506;2024-02-14T06:18:43;4.60;99.90
15690;DHT22;7945;48.816;11.506;2024-02-14T06:21:10;4.60;99.90
15690;DHT22;7945;48.816;11.506;2024-02-14T06:23:37;4.50;99.90
15690;DHT22;7945;48.816;11.506;2024-02-14T06:26:04;4.50;99.90
15690;DHT22;7945;48.816;11.506;2024-02-14T06:28:31;4.50;99.90
15690;DHT22;7945;48.816;11.506;2024-02-14T06:33:27;4.50;99.90
15690;DHT22;7945;48.816;11.506;2024-02-14T06:35:54;4.40;99.90
15690;DHT22;7945;48.816;11.506;2024-02-14T06:38:20;4.40;99.90
15690;DHT22;7945;48.816;11.506;2024-02-14T06:40:47;4.40;99.90
15690;DHT22;7945;48.816;11.506;2024-02-14T06:43:14;4.40;99.90
15690;DHT22;7945;48.816;11.506;2024-02-14T06:45:41;4.40;99.90
15690;DHT22;7945;48.816;11.506;2024-02-14T06:48:07;4.50;99.90
15690;DHT22;7945;48.816;11.506;2024-02-14T06:50:36;4.50;99.90
15690;DHT22;7945;48.816;11.506;2024-02-14T06:53:04;4.50;99.90
15690;DHT22;7945;48.816;11.506;2024-02-14T06:55:30;4.50;99.90
15690;DHT22;7945;48.816;11.506;2024-02-14T06:57:58;4.50;99.90
15690;DHT22;7945;48.816;11.506;2024-02-14T07:00:24;4.50;99.90
15690;DHT22;7945;48.816;11.506;2024-02-14T07:02:51;4.50;99.90
15690;DHT22;7945;48.816;11.506;2024-02-14T07:05:18;4.50;99.90
15690;DHT22;7945;48.816;11.506;2024-02-14T07:07:46;4.50;99.90
15690;DHT22;7945;48.816;11.506;2024-02-14T07:10:13;4.50;99.90
15690;DHT22;7945;48.816;11.506;2024-02-14T07:12:39;4.60;99.90
15690;DHT22;7945;48.816;11.506;2024-02-14T07:15:07;4.60;99.90
15690;DHT22;7945;48.816;11.506;2024-02-14T07:17:34;4.60;99.90
15690;DHT22;7945;48.816;11.506;2024-02-14T07:20:01;4.60;99.90
15690;DHT22;7945;48.816;11.506;2024-02-14T07:22:28;4.70;99.90
15690;DHT22;7945;48.816;11.506;2024-02-14T07:24:57;4.70;99.90
15690;DHT22;7945;48.816;11.506;2024-02-14T07:27:24;4.70;99.90
15690;DHT22;7945;48.816;11.506;2024-02-14T07:29:50;4.60;99.90
15690;DHT22;7945;48.816;11.506;2024-02-14T07:32:17;4.60;99.90
15690;DHT22;7945;48.816;11.506;2024-02-14T07:34:44;4.60;99.90
15690;DHT22;7945;48.816;11.506;2024-02-14T07:37:11;4.60;99.90
15690;DHT22;7945;48.816;11.506;2024-02-14T07:39:40;4.60;99.90
15690;DHT22;7945;48.816;11.506;2024-02-14T07:42:08;4.70;99.90
15690;DHT22;7945;48.816;11.506;2024-02-14T07:44:35;4.70;99.90
15690;DHT22;7945;48.816;11.506;2024-02-14T07:47:02;4.70;99.90
15690;DHT22;7945;48.816;11.506;2024-02-14T07:49:29;4.80;99.90
15690;DHT22;7945;48.816;11.506;2024-02-14T07:51:55;4.80;99.90
15690;DHT22;7945;48.816;11.506;2024-02-14T07:54:22;4.80;99.90
15690;DHT22;7945;48.816;11.506;2024-02-14T07:56:49;4.70;99.90
15690;DHT22;7945;48.816;11.506;2024-02-14T07:59:17;4.70;99.90
15690;DHT22;7945;48.816;11.506;2024-02-14T08:01:44;4.70;99.90
15690;DHT22;7945;48.816;11.506;2024-02-14T08:04:10;4.60;99.90
15690;DHT22;7945;48.816;11.506;2024-02-14T08:06:37;4.60;99.90
15690;DHT22;7945;48.816;11.506;2024-02-14T08:09:04;4.50;99.90
15690;DHT22;7945;48.816;11.506;2024-02-14T08:11:35;4.40;99.90
15690;DHT22;7945;48.816;11.506;2024-02-14T08:14:02;4.40;99.90
15690;DHT22;7945;48.816;11.506;2024-02-14T08:16:30;4.40;99.90
15690;DHT22;7945;48.816;11.506;2024-02-14T08:18:57;4.50;99.90
15690;DHT22;7945;48.816;11.506;2024-02-14T08:21:25;4.50;99.90
15690;DHT22;7945;48.816;11.506;2024-02-14T08:23:52;4.60;99.90
15690;DHT22;7945;48.816;11.506;2024-02-14T08:26:19;4.70;99.90
15690;DHT22;7945;48.816;11.506;2024-02-14T08:28:45;4.70;99.90
15690;DHT22;7945;48.816;11.506;2024-02-14T08:31:13;4.80;99.90
15690;DHT22;7945;48.816;11.506;2024-02-14T08:33:41;4.80;99.90
15690;DHT22;7945;48.816;11.506;2024-02-14T08:36:08;4.90;99.90
15690;DHT22;7945;48.816;11.506;2024-02-14T08:38:35;5.00;99.90
15690;DHT22;7945;48.816;11.506;2024-02-14T08:41:02;5.10;99.90
15690;DHT22;7945;48.816;11.506;2024-02-14T08:43:29;5.30;99.90
15690;DHT22;7945;48.816;11.506;2024-02-14T08:45:56;5.40;99.90
15690;DHT22;7945;48.816;11.506;2024-02-14T08:48:23;5.60;99.90
15690;DHT22;7945;48.816;11.506;2024-02-14T08:50:53;5.70;99.90
15690;DHT22;7945;48.816;11.506;2024-02-14T08:53:20;5.90;99.90
15690;DHT22;7945;48.816;11.506;2024-02-14T08:55:47;6.00;99.90
15690;DHT22;7945;48.816;11.506;2024-02-14T08:58:14;6.10;99.90
15690;DHT22;7945;48.816;11.506;2024-02-14T09:00:41;6.20;99.90
15690;DHT22;7945;48.816;11.506;2024-02-14T09:03:07;6.30;99.90
15690;DHT22;7945;48.816;11.506;2024-02-14T09:05:34;6.40;99.90
15690;DHT22;7945;48.816;11.506;2024-02-14T09:08:04;6.50;99.90
15690;DHT22;7945;48.816;11.506;2024-02-14T09:10:31;6.50;99.90
15690;DHT22;7945;48.816;11.506;2024-02-14T09:12:58;6.50;99.90
15690;DHT22;7945;48.816;11.506;2024-02-14T09:15:25;6.60;99.90
15690;DHT22;7945;48.816;11.506;2024-02-14T09:17:52;6.60;99.90
15690;DHT22;7945;48.816;11.506;2024-02-14T09:20:18;6.60;99.90
15690;DHT22;7945;48.816;11.506;2024-02-14T09:22:45;6.60;99.90
15690;DHT22;7945;48.816;11.506;2024-02-14T09:25:13;6.60;99.90
15690;DHT22;7945;48.816;11.506;2024-02-14T09:27:40;6.60;99.90
15690;DHT22;7945;48.816;11.506;2024-02-14T09:30:09;6.60;99.90
15690;DHT22;7945;48.816;11.506;2024-02-14T09:32:37;6.60;99.90
15690;DHT22;7945;48.816;11.506;2024-02-14T09:35:04;6.70;99.90
15690;DHT22;7945;48.816;11.506;2024-02-14T09:37:32;6.70;99.90
15690;DHT22;7945;48.816;11.506;2024-02-14T09:39:59;6.70;99.90
15690;DHT22;7945;48.816;11.506;2024-02-14T09:42:31;6.70;99.90
15690;DHT22;7945;48.816;11.506;2024-02-14T09:44:59;6.70;99.90
15690;DHT22;7945;48.816;11.506;2024-02-14T09:47:28;6.80;99.90
15690;DHT22;7945;48.816;11.506;2024-02-14T09:49:58;6.80;99.90
15690;DHT22;7945;48.816;11.506;2024-02-14T09:52:25;6.80;99.90
15690;DHT22;7945;48.816;11.506;2024-02-14T09:54:53;6.90;99.90
15690;DHT22;7945;48.816;11.506;2024-02-14T09:57:21;7.00;99.90
15690;DHT22;7945;48.816;11.506;2024-02-14T09:59:50;7.00;99.90
15690;DHT22;7945;48.816;11.506;2024-02-14T10:02:18;7.20;99.90
15690;DHT22;7945;48.816;11.506;2024-02-14T10:04:45;7.20;99.90
15690;DHT22;7945;48.816;11.506;2024-02-14T10:07:12;7.30;99.90
15690;DHT22;7945;48.816;11.506;2024-02-14T10:09:42;6.50;99.90
15690;DHT22;7945;48.816;11.506;2024-02-14T10:12:09;7.50;99.90
15690;DHT22;7945;48.816;11.506;2024-02-14T10:14:36;7.70;99.90
15690;DHT22;7945;48.816;11.506;2024-02-14T10:17:05;7.80;99.90
15690;DHT22;7945;48.816;11.506;2024-02-14T10:19:33;8.00;99.90
15690;DHT22;7945;48.816;11.506;2024-02-14T10:22:01;8.20;99.90
15690;DHT22;7945;48.816;11.506;2024-02-14T10:24:31;8.30;99.90
15690;DHT22;7945;48.816;11.506;2024-02-14T10:26:59;8.40;99.90
15690;DHT22;7945;48.816;11.506;2024-02-14T10:29:27;8.60;99.90
15690;DHT22;7945;48.816;11.506;2024-02-14T10:31:55;8.80;99.90
15690;DHT22;7945;48.816;11.506;2024-02-14T10:34:25;9.00;99.90
15690;DHT22;7945;48.816;11.506;2024-02-14T10:36:53;9.00;99.90
15690;DHT22;7945;48.816;11.506;2024-02-14T10:39:23;9.00;99.90
15690;DHT22;7945;48.816;11.506;2024-02-14T10:41:52;9.10;99.90
15690;DHT22;7945;48.816;11.506;2024-02-14T10:44:19;9.10;99.90
15690;DHT22;7945;48.816;11.506;2024-02-14T10:46:46;9.10;99.90
15690;DHT22;7945;48.816;11.506;2024-02-14T10:49:16;9.00;99.90
15690;DHT22;7945;48.816;11.506;2024-02-14T10:51:46;9.00;99.90
15690;DHT22;7945;48.816;11.506;2024-02-14T10:54:14;9.00;99.90
15690;DHT22;7945;48.816;11.506;2024-02-14T10:56:48;8.90;99.90
15690;DHT22;7945;48.816;11.506;2024-02-14T10:59:17;9.00;99.90
15690;DHT22;7945;48.816;11.506;2024-02-14T11:01:45;9.00;99.90
15690;DHT22;7945;48.816;11.506;2024-02-14T11:04:13;9.00;99.90
15690;DHT22;7945;48.816;11.506;2024-02-14T11:06:48;9.10;99.90
15690;DHT22;7945;48.816;11.506;2024-02-14T11:09:15;9.20;99.90
15690;DHT22;7945;48.816;11.506;2024-02-14T11:11:42;9.30;99.90
15690;DHT22;7945;48.816;11.506;2024-02-14T11:14:10;9.30;99.90
15690;DHT22;7945;48.816;11.506;2024-02-14T11:16:38;9.40;99.90
15690;DHT22;7945;48.816;11.506;2024-02-14T11:19:08;9.50;99.90
15690;DHT22;7945;48.816;11.506;2024-02-14T11:21:36;9.50;99.90
15690;DHT22;7945;48.816;11.506;2024-02-14T11:24:10;9.50;99.90
15690;DHT22;7945;48.816;11.506;2024-02-14T11:26:40;9.50;99.90
15690;DHT22;7945;48.816;11.506;2024-02-14T11:29:07;9.50;99.90
15690;DHT22;7945;48.816;11.506;2024-02-14T11:31:35;9.40;99.90
15690;DHT22;7945;48.816;11.506;2024-02-14T11:34:04;9.40;99.90
15690;DHT22;7945;48.816;11.506;2024-02-14T11:36:32;9.40;99.90
15690;DHT22;7945;48.816;11.506;2024-02-14T11:39:02;9.50;99.90
15690;DHT22;7945;48.816;11.506;2024-02-14T11:41:32;9.50;99.90
15690;DHT22;7945;48.816;11.506;2024-02-14T11:44:01;9.50;99.90
15690;DHT22;7945;48.816;11.506;2024-02-14T11:46:30;9.50;99.90
15690;DHT22;7945;48.816;11.506;2024-02-14T11:48:57;9.60;99.90
15690;DHT22;7945;48.816;11.506;2024-02-14T11:51:24;9.60;99.90
15690;DHT22;7945;48.816;11.506;2024-02-14T11:53:51;9.60;99.90
15690;DHT22;7945;48.816;11.506;2024-02-14T11:56:17;9.60;99.90
15690;DHT22;7945;48.816;11.506;2024-02-14T11:58:47;9.50;99.90
15690;DHT22;7945;48.816;11.506;2024-02-14T12:01:16;9.50;99.90
15690;DHT22;7945;48.816;11.506;2024-02-14T12:03:43;9.50;99.90
15690;DHT22;7945;48.816;11.506;2024-02-14T12:06:11;9.40;99.90
15690;DHT22;7945;48.816;11.506;2024-02-14T12:08:39;9.40;99.90
15690;DHT22;7945;48.816;11.506;2024-02-14T12:11:06;9.40;99.90
15690;DHT22;7945;48.816;11.506;2024-02-14T12:13:33;9.40;99.90
15690;DHT22;7945;48.816;11.506;2024-02-14T12:16:06;9.50;99.90
15690;DHT22;7945;48.816;11.506;2024-02-14T12:18:34;9.60;99.90
15690;DHT22;7945;48.816;11.506;2024-02-14T12:21:04;9.60;99.90
15690;DHT22;7945;48.816;11.506;2024-02-14T12:23:33;9.70;99.90
15690;DHT22;7945;48.816;11.506;2024-02-14T12:26:01;9.70;99.90
15690;DHT22;7945;48.816;11.506;2024-02-14T12:28:29;9.60;99.90
15690;DHT22;7945;48.816;11.506;2024-02-14T12:30:57;9.70;99.90
15690;DHT22;7945;48.816;11.506;2024-02-14T12:33:25;9.70;99.90
15690;DHT22;7945;48.816;11.506;2024-02-14T12:35:54;9.70;99.90
15690;DHT22;7945;48.816;11.506;2024-02-14T12:38:22;9.70;99.90
15690;DHT22;7945;48.816;11.506;2024-02-14T12:40:49;9.80;99.90
15690;DHT22;7945;48.816;11.506;2024-02-14T12:43:17;9.90;99.90
15690;DHT22;7945;48.816;11.506;2024-02-14T12:45:43;10.10;99.90
15690;DHT22;7945;48.816;11.506;2024-02-14T12:48:11;10.20;99.90
15690;DHT22;7945;48.816;11.506;2024-02-14T12:50:40;10.30;99.90
15690;DHT22;7945;48.816;11.506;2024-02-14T12:53:13;10.40;99.90
15690;DHT22;7945;48.816;11.506;2024-02-14T12:55:39;10.50;99.90
15690;DHT22;7945;48.816;11.506;2024-02-14T12:58:06;10.60;99.90
15690;DHT22;7945;48.816;11.506;2024-02-14T13:00:35;10.70;99.90
15690;DHT22;7945;48.816;11.506;2024-02-14T13:03:03;10.80;99.90
15690;DHT22;7945;48.816;11.506;2024-02-14T13:05:30;10.80;99.90
15690;DHT22;7945;48.816;11.506;2024-02-14T13:07:58;10.90;99.90
15690;DHT22;7945;48.816;11.506;2024-02-14T13:10:26;11.00;99.90
15690;DHT22;7945;48.816;11.506;2024-02-14T13:12:52;11.10;99.90
15690;DHT22;7945;48.816;11.506;2024-02-14T13:15:19;10.00;99.90
15690;DHT22;7945;48.816;11.506;2024-02-14T13:17:46;11.00;99.90
15690;DHT22;7945;48.816;11.506;2024-02-14T13:20:13;11.00;99.90
15690;DHT22;7945;48.816;11.506;2024-02-14T13:22:41;10.90;99.90
15690;DHT22;7945;48.816;11.506;2024-02-14T13:25:09;10.90;99.90
15690;DHT22;7945;48.816;11.506;2024-02-14T13:27:36;10.80;99.90
15690;DHT22;7945;48.816;11.506;2024-02-14T13:30:04;10.80;99.90
15690;DHT22;7945;48.816;11.506;2024-02-14T13:32:32;10.90;99.90
15690;DHT22;7945;48.816;11.506;2024-02-14T13:34:59;10.90;99.90
15690;DHT22;7945;48.816;11.506;2024-02-14T13:37:25;10.90;99.90
15690;DHT22;7945;48.816;11.506;2024-02-14T13:39:52;11.00;99.90
15690;DHT22;7945;48.816;11.506;2024-02-14T13:42:20;11.00;99.90
15690;DHT22;7945;48.816;11.506;2024-02-14T13:44:48;11.00;99.90
15690;DHT22;7945;48.816;11.506;2024-02-14T13:47:17;11.00;99.90
15690;DHT22;7945;48.816;11.506;2024-02-14T13:49:45;11.00;99.90
15690;DHT22;7945;48.816;11.506;2024-02-14T13:52:12;11.00;99.90
15690;DHT22;7945;48.816;11.506;2024-02-14T13:54:40;11.00;99.90
15690;DHT22;7945;48.816;11.506;2024-02-14T13:57:07;11.00;99.90
15690;DHT22;7945;48.816;11.506;2024-02-14T13:59:35;11.00;99.90
15690;DHT22;7945;48.816;11.506;2024-02-14T14:02:02;11.00;99.90
15690;DHT22;7945;48.816;11.506;2024-02-14T14:04:29;11.00;99.90
15690;DHT22;7945;48.816;11.506;2024-02-14T14:06:56;11.00;99.90
15690;DHT22;7945;48.816;11.506;2024-02-14T14:09:23;10.90;99.90
15690;DHT22;7945;48.816;11.506;2024-02-14T14:11:50;10.90;99.90
15690;DHT22;7945;48.816;11.506;2024-02-14T14:14:18;10.90;99.90
15690;DHT22;7945;48.816;11.506;2024-02-14T14:16:46;11.00;99.90
15690;DHT22;7945;48.816;11.506;2024-02-14T14:19:13;11.00;99.90
15690;DHT22;7945;48.816;11.506;2024-02-14T14:21:39;10.90;99.90
15690;DHT22;7945;48.816;11.506;2024-02-14T14:24:06;10.90;99.90
15690;DHT22;7945;48.816;11.506;2024-02-14T14:26:33;10.90;99.90
15690;DHT22;7945;48.816;11.506;2024-02-14T14:29:00;11.30;99.90
15690;DHT22;7945;48.816;11.506;2024-02-14T14:31:27;10.90;99.90
15690;DHT22;7945;48.816;11.506;2024-02-14T14:33:55;10.80;99.90
15690;DHT22;7945;48.816;11.506;2024-02-14T14:36:22;10.80;99.90
15690;DHT22;7945;48.816;11.506;2024-02-14T14:38:49;10.80;99.90
15690;DHT22;7945;48.816;11.506;2024-02-14T14:41:16;10.80;99.90
15690;DHT22;7945;48.816;11.506;2024-02-14T14:43:43;10.80;99.90
15690;DHT22;7945;48.816;11.506;2024-02-14T14:46:09;10.80;99.90
15690;DHT22;7945;48.816;11.506;2024-02-14T14:48:37;10.80;99.90
15690;DHT22;7945;48.816;11.506;2024-02-14T14:51:05;10.80;99.90
15690;DHT22;7945;48.816;11.506;2024-02-14T14:53:33;10.80;99.90
15690;DHT22;7945;48.816;11.506;2024-02-14T14:56:00;10.80;99.90
15690;DHT22;7945;48.816;11.506;2024-02-14T14:58:28;10.70;99.90
15690;DHT22;7945;48.816;11.506;2024-02-14T15:00:59;10.70;99.90
15690;DHT22;7945;48.816;11.506;2024-02-14T15:03:29;10.70;99.90
15690;DHT22;7945;48.816;11.506;2024-02-14T15:05:56;10.70;99.90
15690;DHT22;7945;48.816;11.506;2024-02-14T15:08:24;10.70;99.90
15690;DHT22;7945;48.816;11.506;2024-02-14T15:10:53;10.70;99.90
15690;DHT22;7945;48.816;11.506;2024-02-14T15:13:20;10.70;99.90
15690;DHT22;7945;48.816;11.506;2024-02-14T15:15:47;10.70;99.90
15690;DHT22;7945;48.816;11.506;2024-02-14T15:18:14;10.70;99.90
15690;DHT22;7945;48.816;11.506;2024-02-14T15:20:41;10.70;99.90
15690;DHT22;7945;48.816;11.506;2024-02-14T15:23:08;10.70;99.90
15690;DHT22;7945;48.816;11.506;2024-02-14T15:25:36;10.70;99.90
15690;DHT22;7945;48.816;11.506;2024-02-14T15:28:10;10.70;99.90
15690;DHT22;7945;48.816;11.506;2024-02-14T15:30:38;10.70;99.90
15690;DHT22;7945;48.816;11.506;2024-02-14T15:33:23;10.70;99.90
15690;DHT22;7945;48.816;11.506;2024-02-14T15:35:50;10.70;99.90
15690;DHT22;7945;48.816;11.506;2024-02-14T15:38:17;10.70;99.90
15690;DHT22;7945;48.816;11.506;2024-02-14T15:40:47;10.70;99.90
15690;DHT22;7945;48.816;11.506;2024-02-14T15:43:18;10.70;99.90
15690;DHT22;7945;48.816;11.506;2024-02-14T15:45:45;10.70;99.90
15690;DHT22;7945;48.816;11.506;2024-02-14T15:48:11;10.80;99.90
15690;DHT22;7945;48.816;11.506;2024-02-14T15:50:41;10.70;99.90
15690;DHT22;7945;48.816;11.506;2024-02-14T15:53:09;10.70;99.90
15690;DHT22;7945;48.816;11.506;2024-02-14T15:55:36;10.80;99.90
15690;DHT22;7945;48.816;11.506;2024-02-14T15:58:04;10.70;99.90
15690;DHT22;7945;48.816;11.506;2024-02-14T16:00:31;10.70;99.90
15690;DHT22;7945;48.816;11.506;2024-02-14T16:02:58;10.70;99.90
15690;DHT22;7945;48.816;11.506;2024-02-14T16:05:25;10.70;99.90
15690;DHT22;7945;48.816;11.506;2024-02-14T16:07:52;10.70;99.90
15690;DHT22;7945;48.816;11.506;2024-02-14T16:10:20;10.70;99.90
15690;DHT22;7945;48.816;11.506;2024-02-14T16:12:48;10.70;99.90